Time;durP1;ratioP1;P1;durP2;ratioP2;P2;SDS_P1;SDS_P2;PMS_P1;PMS_P2;Temp;Humidity;BMP_temperature;BMP_pressure;BME280_temperature;BME280_humidity;BME280_pressure;Samples;Min_cycle;Max_cycle;Signal;HPM_P1;HPM_P2
2022/04/18 00:01:00;;;;;;;9.82;5.53;;;;;;;3.95;67.46;101364.38;5046403;28;20075;-75
2022/04/18 00:03:25;;;;;;;8.55;5.50;;;;;;;3.96;67.65;101365.28;5042757;28;20057;-75
2022/04/18 00:05:50;;;;;;;8.80;5.53;;;;;;;3.94;67.72;101367.84;5042896;28;20073;-75
2022/04/18 00:08:16;;;;;;;9.25;6.13;;;;;;;3.92;67.34;101366.91;5044720;28;20028;-74
2022/04/18 00:10:41;;;;;;;9.18;5.88;;;;;;;3.88;67.93;101367.66;5044466;28;20103;-75
2022/04/18 00:13:07;;;;;;;8.82;5.43;;;;;;;3.86;68.34;101371.03;5042976;28;20029;-75
2022/04/18 00:15:32;;;;;;;8.80;5.68;;;;;;;3.80;68.59;101362.97;5045491;28;20045;-75
2022/04/18 00:17:58;;;;;;;8.68;6.13;;;;;;;3.76;68.65;101362.00;5042929;28;20029;-75
2022/04/18 00:20:23;;;;;;;8.88;6.00;;;;;;;3.72;69.38;101355.78;5044405;28;20033;-75
2022/04/18 00:22:49;;;;;;;9.95;6.10;;;;;;;3.68;69.22;101348.66;5044275;28;20044;-75
2022/04/18 00:25:14;;;;;;;9.27;6.13;;;;;;;3.65;69.37;101345.06;5042647;28;20056;-75
2022/04/18 00:27:39;;;;;;;8.45;5.85;;;;;;;3.62;69.45;101350.19;5042136;28;20091;-75
2022/04/18 00:30:05;;;;;;;8.60;6.30;;;;;;;3.63;69.75;101351.94;5049462;28;20040;-75
2022/04/18 00:32:33;;;;;;;10.50;6.68;;;;;;;3.57;71.08;101343.91;5048245;28;20037;-75
2022/04/18 00:34:59;;;;;;;9.27;6.35;;;;;;;3.54;70.57;101339.47;5049488;28;20041;-75
2022/04/18 00:37:24;;;;;;;10.02;6.10;;;;;;;3.59;71.13;101331.78;5045397;28;20036;-75
2022/04/18 00:39:49;;;;;;;8.88;5.30;;;;;;;3.67;70.56;101335.56;5054825;28;20033;-75
2022/04/18 00:42:15;;;;;;;8.05;5.47;;;;;;;3.75;69.82;101326.28;5042790;28;20051;-75
2022/04/18 00:44:41;;;;;;;10.13;5.60;;;;;;;3.78;69.59;101329.00;5041446;28;20116;-75
2022/04/18 00:47:07;;;;;;;10.05;6.47;;;;;;;3.76;70.20;101322.81;5043572;28;21529;-75
2022/04/18 00:49:34;;;;;;;8.30;4.65;;;;;;;3.72;69.62;101315.72;5051966;28;20459;-75
2022/04/18 00:52:01;;;;;;;11.38;6.13;;;;;;;3.68;70.01;101316.47;5050639;28;20499;-75
2022/04/18 00:54:26;;;;;;;9.15;4.97;;;;;;;3.61;70.76;101310.13;5042613;28;20033;-75
2022/04/18 00:56:54;;;;;;;7.70;4.93;;;;;;;3.49;71.20;101313.22;5050288;28;20040;-75
2022/04/18 00:59:21;;;;;;;7.03;3.92;;;;;;;3.46;70.79;101312.22;5045106;28;20112;-75
2022/04/18 01:01:47;;;;;;;8.52;4.60;;;;;;;3.47;70.30;101306.16;5042960;28;20499;-75
2022/04/18 01:04:12;;;;;;;7.07;3.97;;;;;;;3.45;71.40;101303.47;5041066;28;20049;-75
2022/04/18 01:06:37;;;;;;;7.28;4.47;;;;;;;3.43;70.82;101294.75;5076894;28;20049;-75
2022/04/18 01:09:03;;;;;;;7.93;4.53;;;;;;;3.44;70.78;101293.00;5053707;28;20038;-75
2022/04/18 01:11:29;;;;;;;6.53;4.03;;;;;;;3.41;70.99;101295.50;5042447;28;20582;-75
2022/04/18 01:14:16;;;;;;;9.88;5.18;;;;;;;3.38;71.08;101298.91;5044120;28;20120;-75
2022/04/18 01:17:06;;;;;;;6.15;4.43;;;;;;;3.37;70.76;101299.72;5042948;28;20405;-75
2022/04/18 01:19:36;;;;;;;8.48;4.82;;;;;;;3.37;70.40;101299.72;5041566;28;20034;-75
2022/04/18 01:22:19;;;;;;;6.90;4.90;;;;;;;3.32;70.09;101293.44;5075275;28;20464;-75
2022/04/18 01:30:34;;;;;;;8.45;4.97;;;;;;;3.08;71.45;101285.63;5041411;28;20033;-75
2022/04/18 01:33:00;;;;;;;8.30;5.18;;;;;;;2.90;71.84;101284.97;5041717;28;20096;-75
2022/04/18 01:35:26;;;;;;;8.02;4.60;;;;;;;2.84;72.53;101281.28;5057548;28;20029;-75
2022/04/18 01:37:51;;;;;;;7.45;4.68;;;;;;;2.88;72.42;101284.00;5046385;28;20032;-75
2022/04/18 01:40:17;;;;;;;10.63;5.05;;;;;;;2.90;71.59;101275.41;5041769;28;20037;-75
2022/04/18 01:42:43;;;;;;;7.88;4.57;;;;;;;2.93;71.67;101274.63;5038045;28;20072;-75
2022/04/18 01:45:11;;;;;;;8.15;4.88;;;;;;;2.93;71.95;101278.13;5042570;28;20037;-75
2022/04/18 01:47:38;;;;;;;7.88;4.70;;;;;;;2.89;71.37;101268.44;5073420;28;20373;-75
2022/04/18 01:50:04;;;;;;;8.45;5.05;;;;;;;2.87;71.79;101270.09;5041318;28;20031;-75
2022/04/18 01:52:30;;;;;;;10.55;5.55;;;;;;;2.78;71.63;101268.03;5053936;28;20041;-75
2022/04/18 01:54:56;;;;;;;10.75;5.97;;;;;;;2.69;73.73;101270.28;5075863;28;20043;-75
2022/04/18 01:57:21;;;;;;;11.80;6.68;;;;;;;2.67;75.60;101271.06;5052175;28;20491;-75
2022/04/18 01:59:48;;;;;;;8.93;5.72;;;;;;;2.74;73.68;101270.47;5041228;28;20036;-75
2022/04/18 02:02:13;;;;;;;7.80;5.38;;;;;;;2.77;73.65;101267.97;5054205;28;20045;-75
2022/04/18 02:04:38;;;;;;;10.43;5.35;;;;;;;2.74;73.39;101260.03;5075659;28;20083;-75
2022/04/18 02:07:10;;;;;;;9.48;5.82;;;;;;;2.67;73.57;101255.44;5039509;28;20029;-75
2022/04/18 02:09:36;;;;;;;9.45;4.95;;;;;;;2.63;73.95;101250.09;5040733;28;20384;-75
2022/04/18 02:12:02;;;;;;;10.90;5.93;;;;;;;2.63;73.37;101250.09;5054466;28;20504;-75
2022/04/18 02:14:35;;;;;;;11.15;6.32;;;;;;;2.63;74.01;101252.72;5072891;28;20037;-75
2022/04/18 02:17:00;;;;;;;10.15;6.20;;;;;;;2.61;73.52;101246.53;5040841;28;20033;-75
2022/04/18 02:19:26;;;;;;;7.97;5.28;;;;;;;2.59;73.90;101249.94;5074471;28;20036;-75
2022/04/18 02:21:51;;;;;;;8.80;5.75;;;;;;;2.55;73.54;101241.13;5038873;28;20057;-75
2022/04/18 02:24:16;;;;;;;10.27;5.25;;;;;;;2.41;73.24;101237.09;5055538;28;20037;-75
2022/04/18 02:26:42;;;;;;;9.40;5.85;;;;;;;2.25;74.68;101233.00;5042419;28;20029;-75
2022/04/18 02:29:11;;;;;;;8.48;5.55;;;;;;;2.16;74.71;101238.75;5037236;28;20395;-75
2022/04/18 02:32:47;;;;;;;8.63;6.00;;;;;;;2.10;74.92;101228.09;5041341;28;20033;-75
2022/04/18 02:34:23;;;;;;;9.82;5.70;;;;;;;2.08;75.07;101240.16;5054767;28;20068;-75
2022/04/18 02:36:50;;;;;;;8.40;5.15;;;;;;;2.01;75.84;101235.53;5038716;28;20036;-75
2022/04/18 02:39:16;;;;;;;8.48;5.57;;;;;;;2.01;76.16;101240.75;5040703;28;20047;-75
2022/04/18 02:41:41;;;;;;;8.85;5.95;;;;;;;2.05;75.35;101237.44;5041301;28;20527;-75
2022/04/18 02:44:07;;;;;;;11.10;6.00;;;;;;;2.10;75.66;101229.84;5039226;28;20407;-75
2022/04/18 02:46:32;;;;;;;9.60;6.30;;;;;;;2.10;75.11;101230.72;5038084;28;20045;-75
2022/04/18 02:49:01;;;;;;;8.80;5.55;;;;;;;2.09;75.45;101226.31;5046396;28;20093;-75
2022/04/18 02:51:27;;;;;;;8.10;5.20;;;;;;;2.09;75.29;101230.63;5042617;28;20033;-75
2022/04/18 02:53:55;;;;;;;10.25;6.38;;;;;;;1.99;75.35;101218.97;5056976;28;20300;-75
2022/04/18 02:56:21;;;;;;;9.13;5.72;;;;;;;1.89;75.07;101224.66;5045682;28;20033;-75
2022/04/18 02:58:48;;;;;;;8.45;5.38;;;;;;;1.78;75.72;101215.50;5048396;28;20033;-75
2022/04/18 03:01:14;;;;;;;10.90;6.15;;;;;;;1.73;76.31;101218.84;5047580;28;20074;-74
2022/04/18 03:03:40;;;;;;;10.52;6.07;;;;;;;1.75;76.84;101219.75;5047881;28;20037;-75
2022/04/18 03:06:05;;;;;;;8.52;5.57;;;;;;;1.73;76.25;101216.22;5047375;28;20039;-75
2022/04/18 03:08:32;;;;;;;9.40;6.15;;;;;;;1.68;76.20;101209.94;5044280;28;20025;-75
2022/04/18 03:11:05;;;;;;;10.32;6.03;;;;;;;1.64;77.24;101223.66;5048945;28;20068;-75
2022/04/18 03:13:33;;;;;;;11.77;6.30;;;;;;;1.68;76.37;101209.94;5047694;28;20033;-75
2022/04/18 03:16:01;;;;;;;10.65;6.28;;;;;;;1.76;76.67;101212.88;5047875;28;20487;-75
2022/04/18 03:18:27;;;;;;;10.55;7.45;;;;;;;1.76;76.35;101212.88;5048036;28;20021;-75
2022/04/18 03:20:53;;;;;;;9.57;6.00;;;;;;;1.80;75.68;101211.25;5047952;28;20544;-75
2022/04/18 03:23:19;;;;;;;11.52;6.90;;;;;;;1.80;76.02;101213.88;5046253;28;20140;-75
2022/04/18 03:26:03;;;;;;;9.02;6.38;;;;;;;1.76;76.04;101210.25;5049073;28;20075;-75
2022/04/18 03:28:40;;;;;;;8.45;6.00;;;;;;;1.72;75.62;101198.81;5047303;28;20490;-75
2022/04/18 03:31:06;;;;;;;14.75;7.10;;;;;;;1.66;75.39;101201.19;5049385;28;20033;-75
2022/04/18 03:33:31;;;;;;;9.88;5.97;;;;;;;1.62;75.60;101201.88;5046819;28;20033;-75
2022/04/18 03:41:24;;;;;;;10.65;6.10;;;;;;;1.54;75.01;101198.06;5037776;28;20033;-75
2022/04/18 03:43:51;;;;;;;8.57;5.20;;;;;;;1.47;75.39;101201.28;5040152;28;20025;-75
2022/04/18 03:46:17;;;;;;;8.50;5.15;;;;;;;1.43;76.05;101196.75;5053067;28;20443;-75
2022/04/18 03:48:42;;;;;;;9.18;5.78;;;;;;;1.39;76.19;101190.53;5073829;28;20032;-75
2022/04/18 03:51:08;;;;;;;10.20;5.65;;;;;;;1.30;76.45;101183.22;5048362;28;20048;-75
2022/04/18 03:53:33;;;;;;;8.65;5.10;;;;;;;1.32;77.12;101193.72;5044358;28;20028;-74
2022/04/18 03:55:59;;;;;;;9.90;6.10;;;;;;;1.30;76.77;101193.63;5048887;28;20051;-74
2022/04/18 03:59:00;;;;;;;8.52;5.65;;;;;;;1.21;76.86;101190.66;5039166;28;20040;-75
2022/04/18 04:01:25;;;;;;;11.07;6.30;;;;;;;1.19;77.22;101194.91;5071780;28;20497;-75
2022/04/18 04:03:51;;;;;;;9.65;5.90;;;;;;;1.12;76.84;101195.44;5047493;28;20082;-75
2022/04/18 04:06:17;;;;;;;8.85;5.57;;;;;;;1.12;77.37;101189.38;5046600;28;20032;-75
2022/04/18 04:08:43;;;;;;;9.30;5.32;;;;;;;1.09;77.57;101190.13;5075714;28;20036;-76
2022/04/18 04:11:10;;;;;;;9.90;5.35;;;;;;;1.00;78.27;101189.75;5046363;28;20052;-74
2022/04/18 04:13:37;;;;;;;9.23;6.22;;;;;;;0.95;78.03;101186.06;5049890;28;20038;-75
2022/04/18 04:16:18;;;;;;;8.75;5.72;;;;;;;0.90;79.01;101192.78;5049132;28;20108;-75
2022/04/18 04:18:43;;;;;;;10.23;5.70;;;;;;;0.90;78.65;101192.78;5044505;28;20052;-75
2022/04/18 04:21:10;;;;;;;10.07;5.32;;;;;;;0.91;78.80;101186.75;5042003;28;20139;-75
2022/04/18 04:23:35;;;;;;;10.80;6.25;;;;;;;0.93;78.99;101185.09;5057030;28;20567;-75
2022/04/18 04:26:05;;;;;;;10.82;5.57;;;;;;;0.96;77.89;101188.72;5075121;28;20033;-75
2022/04/18 04:28:51;;;;;;;11.05;5.50;;;;;;;0.95;78.53;101183.47;5043349;28;20051;-76
2022/04/18 04:31:24;;;;;;;9.65;5.45;;;;;;;0.95;79.05;101186.06;5048350;28;20518;-75
2022/04/18 04:33:49;;;;;;;10.70;6.05;;;;;;;0.99;79.01;101185.34;5060389;28;20029;-74
2022/04/18 04:36:17;;;;;;;8.95;5.00;;;;;;;1.05;79.08;101183.94;5074342;28;20033;-74
2022/04/18 04:38:44;;;;;;;11.45;6.35;;;;;;;1.09;79.83;101184.94;5042475;28;20403;-74
2022/04/18 04:41:21;;;;;;;11.60;7.63;;;;;;;1.15;79.97;101185.19;5077869;28;20029;-74
2022/04/18 04:43:51;;;;;;;13.50;7.53;;;;;;;1.09;80.98;101182.34;5047739;28;20533;-75
2022/04/18 04:46:23;;;;;;;11.15;6.65;;;;;;;1.08;80.47;101185.78;5045276;28;20553;-75
2022/04/18 04:49:07;;;;;;;10.37;6.33;;;;;;;1.18;79.41;101190.53;5047950;28;20029;-75
2022/04/18 04:51:33;;;;;;;12.57;6.93;;;;;;;1.24;77.89;101190.78;5050065;28;20037;-75
2022/04/18 04:53:59;;;;;;;10.85;6.60;;;;;;;1.30;78.34;101190.16;5050162;28;20372;-77
2022/04/18 04:56:32;;;;;;;12.65;6.63;;;;;;;1.41;78.25;101188.88;5048985;28;20029;-75
2022/04/18 04:58:57;;;;;;;10.25;6.18;;;;;;;1.51;77.78;101182.34;5050836;28;20025;-75
2022/04/18 05:01:25;;;;;;;10.80;6.88;;;;;;;1.61;78.53;101181.91;5041588;28;20033;-75
2022/04/18 05:04:11;;;;;;;10.10;6.72;;;;;;;1.72;78.48;101175.41;5047408;28;20223;-75
2022/04/18 05:06:39;;;;;;;10.32;6.60;;;;;;;1.83;78.77;101183.63;5078914;28;20120;-75
2022/04/18 05:09:08;;;;;;;10.95;7.55;;;;;;;1.95;78.32;101178.03;5058809;28;20033;-75
2022/04/18 05:11:34;;;;;;;12.52;7.00;;;;;;;2.09;78.05;101175.97;5040669;28;20088;-75
2022/04/18 05:14:01;;;;;;;12.20;7.07;;;;;;;2.19;78.01;101168.56;5043463;28;20032;-74
2022/04/18 05:16:39;;;;;;;11.93;7.22;;;;;;;2.22;78.72;101175.59;5057708;28;20033;-75
2022/04/18 05:19:23;;;;;;;10.95;6.90;;;;;;;2.35;78.90;101169.13;5047492;28;20044;-75
2022/04/18 05:21:57;;;;;;;11.57;7.47;;;;;;;2.57;77.97;101173.44;5075943;28;20128;-75
2022/04/18 05:24:28;;;;;;;13.75;7.40;;;;;;;2.75;77.52;101178.41;5042393;28;20035;-75
2022/04/18 05:26:54;;;;;;;11.27;6.72;;;;;;;2.88;76.92;101174.50;5044449;28;20029;-75
2022/04/18 05:29:20;;;;;;;11.43;7.45;;;;;;;3.08;75.95;101181.31;5043258;28;20021;-75
2022/04/18 05:31:47;;;;;;;11.48;6.75;;;;;;;3.24;75.28;101180.13;5055053;28;20071;-75
2022/04/18 05:34:13;;;;;;;12.27;7.10;;;;;;;3.38;74.91;101173.66;5048727;28;20057;-75
2022/04/18 05:36:47;;;;;;;9.88;6.55;;;;;;;3.53;73.93;101174.97;5047008;28;20491;-75
2022/04/18 05:39:23;;;;;;;12.43;7.85;;;;;;;3.68;73.81;101170.25;5043065;28;20029;-75
2022/04/18 05:41:48;;;;;;;11.05;6.95;;;;;;;3.81;73.43;101172.41;5053106;28;20427;-75
2022/04/18 05:44:19;;;;;;;10.88;6.93;;;;;;;3.93;72.56;101166.72;5074987;28;20037;-75
2022/04/18 05:46:54;;;;;;;9.77;6.82;;;;;;;4.03;72.63;101168.75;5043261;28;20507;-75
2022/04/18 05:49:20;;;;;;;8.85;5.88;;;;;;;4.13;72.28;101169.91;5042728;28;20071;-75
2022/04/18 05:51:45;;;;;;;9.27;6.30;;;;;;;4.27;71.96;101167.72;5047279;28;20049;-75
2022/04/18 05:54:11;;;;;;;12.05;6.72;;;;;;;4.41;71.49;101165.53;5049763;28;20028;-75
2022/04/18 05:56:42;;;;;;;12.60;6.43;;;;;;;4.54;70.67;101172.88;5043184;28;20079;-75
2022/04/18 05:59:16;;;;;;;11.93;6.35;;;;;;;4.65;70.23;101170.56;5048064;28;20053;-75
2022/04/18 06:01:41;;;;;;;10.77;6.15;;;;;;;4.75;69.76;101164.75;5044108;28;20083;-75
2022/04/18 06:04:12;;;;;;;10.85;6.43;;;;;;;4.86;69.73;101179.00;5047308;28;20041;-75
2022/04/18 06:06:41;;;;;;;9.27;6.18;;;;;;;5.02;69.89;101175.06;5045444;28;20029;-75
2022/04/18 06:09:07;;;;;;;10.15;6.25;;;;;;;5.15;69.54;101171.91;5043163;28;20544;-76
2022/04/18 06:11:33;;;;;;;12.77;7.68;;;;;;;5.28;69.05;101165.28;5043504;28;20039;-75
2022/04/18 06:14:09;;;;;;;10.98;6.35;;;;;;;5.41;68.61;101167.34;5045770;28;20060;-75
2022/04/18 06:16:38;;;;;;;9.82;6.60;;;;;;;5.52;68.38;101167.63;5074249;28;20399;-75
2022/04/18 06:19:04;;;;;;;11.63;7.28;;;;;;;5.64;68.25;101169.66;5046402;28;20029;-75
2022/04/18 06:21:29;;;;;;;11.27;6.75;;;;;;;5.78;67.85;101157.75;5036407;28;20033;-75
2022/04/18 06:23:55;;;;;;;9.63;6.13;;;;;;;5.90;67.41;101162.41;5073176;28;20107;-75
2022/04/18 06:26:39;;;;;;;10.10;6.25;;;;;;;6.05;67.31;101165.41;5040811;28;20098;-75
2022/04/18 06:29:06;;;;;;;10.18;7.10;;;;;;;6.20;66.58;101167.47;5044097;28;20033;-75
2022/04/18 06:31:33;;;;;;;10.32;7.13;;;;;;;6.31;66.54;101170.31;5050528;28;20033;-75
2022/04/18 06:34:01;;;;;;;11.38;6.80;;;;;;;6.41;66.57;101164.41;5074000;28;20419;-75
2022/04/18 06:36:26;;;;;;;10.82;6.55;;;;;;;6.50;65.94;101164.63;5039134;28;20073;-75
2022/04/18 06:39:13;;;;;;;10.18;6.07;;;;;;;6.62;65.87;101165.72;5054226;28;20079;-75
2022/04/18 06:41:39;;;;;;;8.35;5.93;;;;;;;6.75;65.29;101162.50;5071314;28;20041;-75
2022/04/18 06:44:05;;;;;;;11.05;6.78;;;;;;;6.89;64.99;101165.38;5040958;28;20041;-75
2022/04/18 06:46:41;;;;;;;9.75;6.90;;;;;;;6.99;65.23;101167.31;5074966;28;20033;-75
2022/04/18 06:49:08;;;;;;;10.93;7.15;;;;;;;7.01;65.25;101161.22;5038479;28;20033;-75
2022/04/18 06:52:05;;;;;;;11.15;7.07;;;;;;;7.07;65.00;101162.22;5040867;28;20049;-75
2022/04/18 06:54:51;;;;;;;12.95;6.95;;;;;;;7.15;64.85;101157.97;5042019;28;20050;-75
2022/04/18 06:57:16;;;;;;;9.85;6.30;;;;;;;7.31;64.32;101157.41;5037051;28;20041;-75
2022/04/18 06:59:53;;;;;;;8.35;6.45;;;;;;;7.50;64.25;101155.09;5044292;28;20033;-75
2022/04/18 07:02:21;;;;;;;10.32;6.95;;;;;;;7.67;63.85;101150.97;5039368;28;20041;-75
2022/04/18 07:04:49;;;;;;;10.43;6.75;;;;;;;7.82;63.21;101152.97;5054197;28;20055;-75
2022/04/18 07:07:15;;;;;;;9.68;6.75;;;;;;;7.96;63.40;101153.16;5041742;28;20160;-75
2022/04/18 07:09:40;;;;;;;9.57;6.20;;;;;;;8.06;63.09;101153.31;5040394;28;20492;-75
2022/04/18 07:12:10;;;;;;;8.95;6.45;;;;;;;8.17;63.31;101156.06;5053060;28;20038;-75
2022/04/18 07:14:36;;;;;;;8.73;6.47;;;;;;;8.24;62.86;101163.19;5048988;28;20033;-75
2022/04/18 07:17:03;;;;;;;10.25;6.63;;;;;;;8.30;62.50;101158.00;5051733;28;20161;-75
2022/04/18 07:19:31;;;;;;;9.55;6.32;;;;;;;8.42;62.33;101159.09;5072877;28;20021;-75
2022/04/18 07:21:59;;;;;;;10.88;7.50;;;;;;;8.40;61.80;101156.41;5038275;28;20029;-75
2022/04/18 07:24:25;;;;;;;11.27;6.80;;;;;;;8.52;62.00;101153.94;5042471;28;20040;-75
2022/04/18 07:26:53;;;;;;;8.07;5.82;;;;;;;8.66;61.54;101161.13;5073856;28;20037;-75
2022/04/18 07:29:18;;;;;;;8.88;6.47;;;;;;;8.76;61.25;101150.72;5053203;28;20407;-75
2022/04/18 07:31:44;;;;;;;8.57;5.88;;;;;;;8.83;60.65;101149.06;5074812;28;20052;-75
2022/04/18 07:34:09;;;;;;;10.15;6.75;;;;;;;8.85;60.25;101154.31;5049247;28;20049;-75
2022/04/18 07:36:35;;;;;;;9.07;6.47;;;;;;;8.96;59.86;101150.94;5058060;28;20404;-75
2022/04/18 07:39:00;;;;;;;8.45;6.15;;;;;;;9.06;59.66;101151.91;5072822;28;20033;-75
2022/04/18 07:41:38;;;;;;;8.50;6.40;;;;;;;9.16;59.11;101145.84;5037807;28;20087;-75
2022/04/18 07:44:04;;;;;;;9.13;6.32;;;;;;;9.20;58.97;101147.66;5040154;28;20029;-75
2022/04/18 07:46:32;;;;;;;11.68;7.05;;;;;;;9.27;58.89;101145.94;5039591;28;20495;-75
2022/04/18 07:48:59;;;;;;;9.52;6.57;;;;;;;9.33;57.64;101140.75;5049144;28;20388;-76
2022/04/18 07:51:42;;;;;;;10.13;6.20;;;;;;;9.38;56.95;101144.31;5040935;28;20080;-75
2022/04/18 07:54:19;;;;;;;8.52;6.38;;;;;;;9.43;56.80;101141.69;5075643;28;20029;-75
2022/04/18 07:56:46;;;;;;;8.98;6.00;;;;;;;9.45;56.58;101147.88;5045110;28;20033;-75
2022/04/18 07:59:12;;;;;;;9.65;6.30;;;;;;;9.51;56.68;101145.31;5041576;28;20385;-75
2022/04/18 08:01:39;;;;;;;9.27;5.55;;;;;;;9.66;56.53;101142.75;5044029;28;20032;-75
2022/04/18 08:04:06;;;;;;;9.43;5.53;;;;;;;9.84;56.20;101144.66;5056370;28;20061;-75
2022/04/18 08:06:34;;;;;;;8.45;5.18;;;;;;;10.00;55.43;101139.47;5045257;28;20029;-75
2022/04/18 08:09:07;;;;;;;8.68;5.80;;;;;;;10.03;55.21;101135.13;5042006;28;20499;-75
2022/04/18 08:11:33;;;;;;;9.60;5.47;;;;;;;10.06;53.98;101140.41;5044094;28;20075;-75
2022/04/18 08:14:00;;;;;;;7.80;4.88;;;;;;;10.06;53.74;101139.50;5057307;28;20029;-75
2022/04/18 08:16:42;;;;;;;7.25;4.32;;;;;;;10.13;52.64;101135.16;5076682;28;20030;-75
2022/04/18 08:19:26;;;;;;;9.10;5.07;;;;;;;10.27;52.07;101133.44;5044294;28;20076;-75
2022/04/18 08:21:52;;;;;;;8.48;5.32;;;;;;;10.39;54.38;101137.94;5044425;28;20033;-75
2022/04/18 08:24:18;;;;;;;9.02;5.28;;;;;;;10.48;52.91;101136.25;5057373;28;20125;-75
2022/04/18 08:27:02;;;;;;;10.95;5.78;;;;;;;10.65;51.28;101132.78;5042783;28;20474;-75
2022/04/18 08:29:33;;;;;;;7.35;4.85;;;;;;;10.61;51.40;101129.25;5075016;28;20022;-75
2022/04/18 08:32:21;;;;;;;8.40;4.47;;;;;;;10.76;51.73;101123.13;5041509;28;20502;-75
2022/04/18 08:34:46;;;;;;;6.18;4.15;;;;;;;10.90;50.56;101115.25;5042609;28;20060;-75
2022/04/18 08:37:17;;;;;;;7.78;3.80;;;;;;;11.01;49.88;101113.50;5056789;28;20093;-75
2022/04/18 08:40:08;;;;;;;7.68;4.18;;;;;;;11.10;50.22;101104.69;5045107;28;20073;-75
2022/04/18 08:42:37;;;;;;;6.00;3.72;;;;;;;11.07;48.03;101113.50;5042987;28;20584;-75
2022/04/18 08:45:05;;;;;;;6.60;3.70;;;;;;;11.14;49.47;101111.75;5056038;28;20090;-75
2022/04/18 08:53:01;;;;;;;6.03;4.30;;;;;;;11.17;48.05;101112.63;5050167;28;20033;-75
2022/04/18 08:55:45;;;;;;;7.25;4.30;;;;;;;11.32;48.45;101102.94;5042787;28;20029;-75
2022/04/18 08:58:21;;;;;;;7.32;3.97;;;;;;;11.41;48.03;101106.44;5044476;28;20025;-75
2022/04/18 09:00:46;;;;;;;7.15;4.25;;;;;;;11.46;49.35;101101.16;5042159;28;20037;-75
2022/04/18 09:03:37;;;;;;;6.63;4.22;;;;;;;11.55;48.65;101094.97;5043564;28;20037;-75
2022/04/18 09:06:08;;;;;;;7.43;3.70;;;;;;;11.68;48.46;101087.91;5040786;28;20040;-75
2022/04/18 09:08:42;;;;;;;6.47;3.55;;;;;;;11.85;48.33;101079.06;5040749;28;20033;-74
2022/04/18 09:11:08;;;;;;;6.55;3.63;;;;;;;12.01;48.24;101081.72;5040736;28;20029;-75
2022/04/18 09:13:40;;;;;;;5.07;3.53;;;;;;;12.14;48.12;101080.78;5044600;28;20044;-75
2022/04/18 09:16:14;;;;;;;6.43;3.85;;;;;;;12.26;47.67;101075.44;5043134;28;20048;-75
2022/04/18 09:18:42;;;;;;;7.30;4.18;;;;;;;12.22;47.59;101072.81;5040245;28;20025;-75
2022/04/18 09:21:19;;;;;;;6.68;3.38;;;;;;;12.24;48.10;101071.91;5043214;28;20094;-75
2022/04/18 09:23:45;;;;;;;5.55;3.30;;;;;;;12.51;47.62;101070.00;5051441;28;20037;-76
2022/04/18 09:26:21;;;;;;;6.05;3.75;;;;;;;12.68;47.29;101062.88;5075059;28;20037;-75
2022/04/18 09:28:46;;;;;;;6.07;3.30;;;;;;;12.88;47.56;101061.84;5041944;28;20554;-75
2022/04/18 09:31:19;;;;;;;5.95;3.30;;;;;;;13.01;46.34;101054.69;5056045;28;20052;-75
2022/04/18 09:33:53;;;;;;;7.63;3.20;;;;;;;12.97;44.68;101040.59;5041765;28;20559;-75
2022/04/18 09:36:21;;;;;;;5.93;2.83;;;;;;;12.87;45.15;101050.38;5055920;28;20056;-75
2022/04/18 09:38:49;;;;;;;4.82;2.90;;;;;;;13.11;45.46;101041.34;5042218;28;20056;-76
2022/04/18 09:41:33;;;;;;;4.82;2.70;;;;;;;13.34;45.54;101038.53;5056639;28;20033;-75
2022/04/18 09:44:09;;;;;;;5.30;2.95;;;;;;;13.49;44.62;101034.84;5043580;28;20504;-75
2022/04/18 09:46:41;;;;;;;5.40;3.03;;;;;;;13.57;44.20;101032.09;5073524;28;20095;-76
2022/04/18 09:49:12;;;;;;;4.60;2.15;;;;;;;13.71;44.05;101035.50;5040397;28;20033;-75
2022/04/18 09:51:45;;;;;;;4.53;2.67;;;;;;;13.87;43.81;101027.38;5052377;28;20415;-76
2022/04/18 09:54:12;;;;;;;5.57;3.13;;;;;;;13.92;43.89;101026.41;5041405;28;20048;-75
2022/04/18 09:56:48;;;;;;;4.70;3.10;;;;;;;14.03;43.01;101032.47;5042887;28;20037;-76
2022/04/18 09:59:17;;;;;;;5.05;2.75;;;;;;;14.08;42.12;101026.22;5041362;28;20080;-75
2022/04/18 10:01:43;;;;;;;4.90;2.05;;;;;;;14.19;41.85;101017.22;5041574;28;20410;-75
2022/04/18 10:04:08;;;;;;;4.28;2.40;;;;;;;14.41;41.63;101015.16;5043429;28;20037;-75
2022/04/18 10:06:36;;;;;;;4.60;2.58;;;;;;;14.71;41.49;101012.97;5039224;28;20451;-75
2022/04/18 10:09:01;;;;;;;3.92;2.13;;;;;;;14.87;40.37;101009.16;5041298;28;20098;-75
2022/04/18 10:11:28;;;;;;;4.90;2.88;;;;;;;14.73;40.23;101005.84;5041973;28;20042;-75
2022/04/18 10:13:53;;;;;;;4.82;2.67;;;;;;;14.73;40.31;101005.84;5038691;28;20037;-75
2022/04/18 10:16:19;;;;;;;4.53;2.28;;;;;;;14.88;40.04;101002.97;5043498;28;20073;-76
2022/04/18 10:18:52;;;;;;;4.30;2.60;;;;;;;14.86;39.88;101003.88;5040911;28;20039;-75
2022/04/18 10:21:29;;;;;;;3.63;1.95;;;;;;;15.00;39.68;100987.69;5040137;28;20045;-76
2022/04/18 10:24:10;;;;;;;5.32;2.40;;;;;;;15.03;39.58;100979.66;5041138;28;20041;-75
2022/04/18 10:27:11;;;;;;;5.05;2.22;;;;;;;15.13;40.07;100974.16;5040624;28;20418;-75
2022/04/18 10:29:42;;;;;;;5.00;2.63;;;;;;;15.11;38.83;100970.66;5042348;28;20037;-75
2022/04/18 10:32:08;;;;;;;4.45;1.90;;;;;;;15.07;39.46;100971.63;5039890;28;20432;-76
2022/04/18 10:34:34;;;;;;;4.72;2.30;;;;;;;15.20;40.05;100976.72;5042317;28;20511;-76
2022/04/18 10:37:01;;;;;;;4.03;2.28;;;;;;;15.29;38.96;100972.09;5042033;28;20462;-75
2022/04/18 10:39:35;;;;;;;5.10;2.92;;;;;;;15.39;38.82;100959.50;5040344;28;20044;-76
2022/04/18 10:42:31;;;;;;;6.00;2.00;;;;;;;15.49;38.17;100954.91;5040592;28;20041;-75
2022/04/18 10:45:04;;;;;;;4.68;2.30;;;;;;;15.69;38.02;100957.16;5042029;28;20411;-76
2022/04/18 10:47:55;;;;;;;4.75;1.95;;;;;;;15.72;37.58;100941.16;5039999;28;20095;-75
2022/04/18 10:50:24;;;;;;;5.53;1.92;;;;;;;15.79;35.77;100942.78;5034357;28;20044;-76
2022/04/18 10:53:16;;;;;;;4.25;1.80;;;;;;;15.73;35.66;100949.09;5038807;28;20055;-76
2022/04/18 10:55:51;;;;;;;;;;;;;;;15.62;37.08;100939.56;5042979;28;20067;-76
2022/04/18 10:58:21;;;;;;;3.60;1.67;;;;;;;15.77;37.16;100933.94;5040685;28;19913;-75
2022/04/18 11:00:54;;;;;;;4.03;1.90;;;;;;;16.01;36.93;100937.88;5040489;28;20033;-76
2022/04/18 11:03:34;;;;;;;3.33;1.55;;;;;;;16.13;36.23;100939.38;5043542;28;20479;-76
2022/04/18 11:06:00;;;;;;;2.97;1.60;;;;;;;16.46;36.61;100929.72;5038364;28;20077;-76
2022/04/18 11:08:29;;;;;;;2.80;1.38;;;;;;;16.80;35.12;100928.94;5040888;28;20079;-75
2022/04/18 11:11:03;;;;;;;3.05;1.30;;;;;;;17.21;35.02;100932.28;5041119;28;20132;-76
2022/04/18 11:13:31;;;;;;;4.03;1.30;;;;;;;17.55;33.75;100928.66;5039549;28;20049;-76
2022/04/18 11:16:23;;;;;;;3.78;1.40;;;;;;;17.47;32.28;100927.09;5041505;28;20049;-76
2022/04/18 11:19:06;;;;;;;2.67;1.23;;;;;;;16.80;32.90;100928.94;5041105;28;20373;-76
2022/04/18 11:22:04;;;;;;;4.38;1.52;;;;;;;16.42;34.67;100920.06;5038543;28;20128;-76
2022/04/18 11:24:43;;;;;;;3.40;1.48;;;;;;;16.68;34.38;100926.53;5042578;28;20040;-76
2022/04/18 11:27:10;;;;;;;3.47;1.50;;;;;;;17.04;34.23;100917.63;5044935;28;20484;-76
2022/04/18 11:29:37;;;;;;;4.13;1.58;;;;;;;17.50;33.30;100919.03;5043972;28;20041;-76
2022/04/18 11:32:04;;;;;;;2.22;1.23;;;;;;;17.41;32.16;100913.06;5046206;28;20037;-76
2022/04/18 11:34:30;;;;;;;3.33;1.48;;;;;;;17.16;31.67;100905.75;5047352;28;20036;-76
2022/04/18 11:36:58;;;;;;;2.47;1.00;;;;;;;16.84;32.20;100903.94;5045046;28;20039;-76
2022/04/18 11:39:24;;;;;;;2.55;1.23;;;;;;;16.79;32.21;100906.75;5043484;28;20116;-76
2022/04/18 11:42:02;;;;;;;3.03;1.30;;;;;;;17.60;30.79;100906.25;5046048;28;20127;-76
2022/04/18 11:44:37;;;;;;;2.80;1.30;;;;;;;18.15;30.70;100898.41;5049507;28;20088;-76
2022/04/18 11:47:07;;;;;;;3.22;1.30;;;;;;;18.69;29.84;100902.88;5043974;28;20041;-76
2022/04/18 11:49:33;;;;;;;2.67;1.30;;;;;;;19.00;29.76;100896.50;5043828;28;20033;-76
2022/04/18 11:51:58;;;;;;;2.85;1.42;;;;;;;19.45;29.46;100890.41;5042113;28;20029;-76
2022/04/18 11:54:24;;;;;;;3.92;1.88;;;;;;;19.33;29.45;100886.38;5049603;28;20557;-76
2022/04/18 11:56:57;;;;;;;3.10;1.58;;;;;;;18.52;31.17;100890.09;5044136;28;20500;-76
2022/04/18 11:59:26;;;;;;;4.45;1.80;;;;;;;17.89;31.79;100886.78;5043181;28;20057;-76